PWSweather.com
Personal Weather Stations
Station Observations
KTXDECATUR
Wildwood, Decatur, TX 76234

WildwoodDecatur, TX 76234

Lat: 33.2634, Lon: -97.6651

Elevation: 800

Station Type: Davis Vantage Pro 2

http://weather.wildwoodnaturist.com

Latest ConditionsUpdated 11:10:13 AM CDT Monday, Sep 22, 2014
Currently Today's Max Today's Min Today's Average
Temperature 77.8°F25.4°C 77.8°F25.4°C 69.3°F20.7°C 72.7°F22.6°C
Dew Point 57.1°F13.9°C 69.2°F20.7°C 55.8°F13.2°C 59.2°F15.1°C
Winds 6.9 mph ENE11.1 kmh ENE 9.1 mph ENE14.6 kmh ENE - 4.6 mph 7.4 kmh
Wind Gusts 10.7 mph17.2 kmh 12.8 mph20.6 kmh - -
Humidity 49% 80% 49% 63%
Pressure 30.20 in1022.7 mb 30.20 in1022.7 mb 30.08 in1018.6 mb -
Hour Temp Dew Point Humidity Winds Wind Gusts Pressure Precip Precip Rate Daily Precip Total
11:10 AM 77.8°F25.4°C 57.1°F13.9°C 49% 6.9 mph ENE11.1 kmh ENE 10.7 mph17.2 kmh 30.20 in1022.7 mb 0.00 in0.0 mm 0.00 in/hr0.0 mm/hr 0.00 in0.0 mm
11:00 AM 77.3°F25.2°C 57.2°F14.0°C 50% 5.8 mph E9.3 kmh E 9.6 mph15.4 kmh 30.20 in1022.7 mb 0.00 in0.0 mm 0.00 in/hr0.0 mm/hr 0.00 in0.0 mm
10:50 AM 77.5°F25.3°C 56.8°F13.8°C 49% 7.2 mph ENE11.6 kmh ENE 9.6 mph15.4 kmh 30.20 in1022.7 mb 0.00 in0.0 mm 0.00 in/hr0.0 mm/hr 0.00 in0.0 mm
10:40 AM 77.4°F25.2°C 56.7°F13.7°C 49% 8.8 mph E14.2 kmh E 12.8 mph20.6 kmh 30.20 in1022.7 mb 0.00 in0.0 mm 0.00 in/hr0.0 mm/hr 0.00 in0.0 mm
10:30 AM 76.4°F24.7°C 58.0°F14.4°C 53% 5.5 mph E8.9 kmh E 5.3 mph8.5 kmh 30.20 in1022.7 mb 0.00 in0.0 mm 0.00 in/hr0.0 mm/hr 0.00 in0.0 mm
10:20 AM 74.7°F23.7°C 56.9°F13.8°C 54% 7.2 mph NE11.6 kmh NE 11.8 mph19.0 kmh 30.20 in1022.7 mb 0.00 in0.0 mm 0.00 in/hr0.0 mm/hr 0.00 in0.0 mm
10:10 AM 73.6°F23.1°C 57.0°F13.9°C 56% 3.9 mph E6.3 kmh E 11.8 mph19.0 kmh 30.20 in1022.7 mb 0.00 in0.0 mm 0.00 in/hr0.0 mm/hr 0.00 in0.0 mm
10:00 AM 73.6°F23.1°C 57.9°F14.4°C 58% 6.0 mph E9.7 kmh E 6.4 mph10.3 kmh 30.20 in1022.7 mb 0.00 in0.0 mm 0.00 in/hr0.0 mm/hr 0.00 in0.0 mm
09:50 AM 73.1°F22.8°C 57.5°F14.2°C 58% 7.1 mph E11.4 kmh E 10.7 mph17.2 kmh 30.20 in1022.7 mb 0.00 in0.0 mm 0.00 in/hr0.0 mm/hr 0.00 in0.0 mm
09:40 AM 72.3°F22.4°C 57.6°F14.2°C 60% 3.4 mph E5.5 kmh E 9.6 mph15.4 kmh 30.20 in1022.7 mb 0.00 in0.0 mm 0.00 in/hr0.0 mm/hr 0.00 in0.0 mm
09:30 AM 71.6°F22.0°C 57.0°F13.9°C 60% 7.2 mph NE11.6 kmh NE 10.7 mph17.2 kmh 30.20 in1022.7 mb 0.00 in0.0 mm 0.00 in/hr0.0 mm/hr 0.00 in0.0 mm
09:20 AM 71.1°F21.7°C 57.0°F13.9°C 61% 3.0 mph NE4.8 kmh NE 5.3 mph8.5 kmh 30.20 in1022.7 mb 0.00 in0.0 mm 0.00 in/hr0.0 mm/hr 0.00 in0.0 mm
09:10 AM 71.0°F21.7°C 56.4°F13.6°C 60% 5.3 mph ENE8.5 kmh ENE 6.4 mph10.3 kmh 30.20 in1022.7 mb 0.00 in0.0 mm 0.00 in/hr0.0 mm/hr 0.00 in0.0 mm
09:00 AM 70.7°F21.5°C 56.6°F13.7°C 61% 3.3 mph ENE5.3 kmh ENE 5.3 mph8.5 kmh 30.19 in1022.4 mb 0.00 in0.0 mm 0.00 in/hr0.0 mm/hr 0.00 in0.0 mm
08:50 AM 70.5°F21.4°C 56.9°F13.8°C 62% 1.3 mph NE2.1 kmh NE 3.2 mph5.1 kmh 30.19 in1022.4 mb 0.00 in0.0 mm 0.00 in/hr0.0 mm/hr 0.00 in0.0 mm
08:40 AM 69.9°F21.1°C 56.3°F13.5°C 62% 5.3 mph ENE8.5 kmh ENE 6.4 mph10.3 kmh 30.19 in1022.4 mb 0.00 in0.0 mm 0.00 in/hr0.0 mm/hr 0.00 in0.0 mm
08:30 AM 69.5°F20.8°C 56.3°F13.5°C 63% 4.4 mph NE7.1 kmh NE 5.3 mph8.5 kmh 30.18 in1022.0 mb 0.00 in0.0 mm 0.00 in/hr0.0 mm/hr 0.00 in0.0 mm
08:20 AM 69.3°F20.7°C 56.6°F13.7°C 64% 4.7 mph ENE7.6 kmh ENE 11.8 mph19.0 kmh 30.18 in1022.0 mb 0.00 in0.0 mm 0.00 in/hr0.0 mm/hr 0.00 in0.0 mm
08:10 AM 69.4°F20.8°C 56.3°F13.5°C 63% 4.8 mph NE7.7 kmh NE 10.7 mph17.2 kmh 30.18 in1022.0 mb 0.00 in0.0 mm 0.00 in/hr0.0 mm/hr 0.00 in0.0 mm
08:00 AM 69.5°F20.8°C 56.3°F13.5°C 63% 3.5 mph NE5.6 kmh NE 8.6 mph13.8 kmh 30.17 in1021.7 mb 0.00 in0.0 mm 0.00 in/hr0.0 mm/hr 0.00 in0.0 mm
07:50 AM 69.5°F20.8°C 56.3°F13.5°C 63% 4.3 mph NE6.9 kmh NE 9.6 mph15.4 kmh 30.17 in1021.7 mb 0.00 in0.0 mm 0.00 in/hr0.0 mm/hr 0.00 in0.0 mm
07:40 AM 69.5°F20.8°C 55.9°F13.3°C 62% 4.2 mph NE6.8 kmh NE 6.4 mph10.3 kmh 30.17 in1021.7 mb 0.00 in0.0 mm 0.00 in/hr0.0 mm/hr 0.00 in0.0 mm
07:30 AM 69.6°F20.9°C 56.0°F13.3°C 62% 3.9 mph NE6.3 kmh NE 5.3 mph8.5 kmh 30.17 in1021.7 mb 0.00 in0.0 mm 0.00 in/hr0.0 mm/hr 0.00 in0.0 mm
07:20 AM 69.6°F20.9°C 56.0°F13.3°C 62% 1.8 mph NE2.9 kmh NE 5.3 mph8.5 kmh 30.16 in1021.3 mb 0.00 in0.0 mm 0.00 in/hr0.0 mm/hr 0.00 in0.0 mm
07:10 AM 69.8°F21.0°C 56.2°F13.4°C 62% 2.7 mph ENE4.3 kmh ENE 4.3 mph6.9 kmh 30.16 in1021.3 mb 0.00 in0.0 mm 0.00 in/hr0.0 mm/hr 0.00 in0.0 mm
07:00 AM 69.9°F21.1°C 55.8°F13.2°C 61% 3.7 mph ENE6.0 kmh ENE 6.4 mph10.3 kmh 30.15 in1021.0 mb 0.00 in0.0 mm 0.00 in/hr0.0 mm/hr 0.00 in0.0 mm
06:50 AM 70.0°F21.1°C 56.0°F13.3°C 61% 4.6 mph NE7.4 kmh NE 5.3 mph8.5 kmh 30.15 in1021.0 mb 0.00 in0.0 mm 0.00 in/hr0.0 mm/hr 0.00 in0.0 mm
06:40 AM 70.2°F21.2°C 56.1°F13.4°C 61% 0.2 mph NE0.3 kmh NE 4.3 mph6.9 kmh 30.14 in1020.7 mb 0.00 in0.0 mm 0.00 in/hr0.0 mm/hr 0.00 in0.0 mm
06:30 AM 70.3°F21.3°C 56.2°F13.4°C 61% 3.4 mph NE5.5 kmh NE 5.3 mph8.5 kmh 30.15 in1021.0 mb 0.00 in0.0 mm 0.00 in/hr0.0 mm/hr 0.00 in0.0 mm
06:10 AM 70.7°F21.5°C 56.6°F13.7°C 61% 1.9 mph NE3.1 kmh NE 3.2 mph5.1 kmh 30.14 in1020.7 mb 0.00 in0.0 mm 0.00 in/hr0.0 mm/hr 0.00 in0.0 mm
06:00 AM 70.8°F21.6°C 56.7°F13.7°C 61% 2.7 mph NE4.3 kmh NE 3.2 mph5.1 kmh 30.14 in1020.7 mb 0.00 in0.0 mm 0.00 in/hr0.0 mm/hr 0.00 in0.0 mm
05:50 AM 71.0°F21.7°C 56.9°F13.8°C 61% 0.4 mph NNE0.6 kmh NNE 5.3 mph8.5 kmh 30.14 in1020.7 mb 0.00 in0.0 mm 0.00 in/hr0.0 mm/hr 0.00 in0.0 mm
05:40 AM 70.9°F21.6°C 56.8°F13.8°C 61% 2.3 mph NE3.7 kmh NE 3.2 mph5.1 kmh 30.13 in1020.3 mb 0.00 in0.0 mm 0.00 in/hr0.0 mm/hr 0.00 in0.0 mm
05:30 AM 70.8°F21.6°C 57.1°F13.9°C 62% 1.5 mph NE2.4 kmh NE 1.1 mph1.8 kmh 30.13 in1020.3 mb 0.00 in0.0 mm 0.00 in/hr0.0 mm/hr 0.00 in0.0 mm
05:20 AM 71.0°F21.7°C 57.3°F14.1°C 62% Calm Calm -- 30.13 in1020.3 mb 0.00 in0.0 mm 0.00 in/hr0.0 mm/hr 0.00 in0.0 mm
05:10 AM 71.0°F21.7°C 57.3°F14.1°C 62% 3.2 mph NE5.1 kmh NE 4.3 mph6.9 kmh 30.13 in1020.3 mb 0.00 in0.0 mm 0.00 in/hr0.0 mm/hr 0.00 in0.0 mm
04:50 AM 70.9°F21.6°C 57.7°F14.3°C 63% 3.7 mph ENE6.0 kmh ENE 5.3 mph8.5 kmh 30.12 in1020.0 mb 0.00 in0.0 mm 0.00 in/hr0.0 mm/hr 0.00 in0.0 mm
04:40 AM 70.9°F21.6°C 58.1°F14.5°C 64% 1.9 mph NE3.1 kmh NE 5.3 mph8.5 kmh 30.12 in1020.0 mb 0.00 in0.0 mm 0.00 in/hr0.0 mm/hr 0.00 in0.0 mm
04:30 AM 71.2°F21.8°C 58.0°F14.4°C 63% 3.1 mph ENE5.0 kmh ENE 4.3 mph6.9 kmh 30.12 in1020.0 mb 0.00 in0.0 mm 0.00 in/hr0.0 mm/hr 0.00 in0.0 mm
04:20 AM 71.6°F22.0°C 57.9°F14.4°C 62% 4.9 mph NE7.9 kmh NE 7.5 mph12.1 kmh 30.12 in1020.0 mb 0.00 in0.0 mm 0.00 in/hr0.0 mm/hr 0.00 in0.0 mm
04:10 AM 72.0°F22.2°C 57.8°F14.3°C 61% 5.1 mph NE8.2 kmh NE 7.5 mph12.1 kmh 30.12 in1020.0 mb 0.00 in0.0 mm 0.00 in/hr0.0 mm/hr 0.00 in0.0 mm
04:00 AM 72.3°F22.4°C 58.1°F14.5°C 61% 7.0 mph NNE11.3 kmh NNE 11.8 mph19.0 kmh 30.12 in1020.0 mb 0.00 in0.0 mm 0.00 in/hr0.0 mm/hr 0.00 in0.0 mm
03:50 AM 72.6°F22.6°C 58.8°F14.9°C 62% 5.3 mph NE8.5 kmh NE 10.7 mph17.2 kmh 30.11 in1019.6 mb 0.00 in0.0 mm 0.00 in/hr0.0 mm/hr 0.00 in0.0 mm
03:40 AM 72.9°F22.7°C 59.5°F15.3°C 63% 5.3 mph NNE8.5 kmh NNE 12.8 mph20.6 kmh 30.11 in1019.6 mb 0.00 in0.0 mm 0.00 in/hr0.0 mm/hr 0.00 in0.0 mm
03:33 AM 73.1°F22.8°C 59.8°F15.4°C 63% 7.5 mph NE12.1 kmh NE 12.8 mph20.6 kmh 30.11 in1019.6 mb 0.00 in0.0 mm 0.00 in/hr0.0 mm/hr 0.00 in0.0 mm
03:21 AM 73.2°F22.9°C 59.8°F15.4°C 63% 4.5 mph NE7.2 kmh NE 7.5 mph12.1 kmh 30.11 in1019.6 mb 0.00 in0.0 mm 0.00 in/hr0.0 mm/hr 0.00 in0.0 mm
03:10 AM 73.4°F23.0°C 60.0°F15.6°C 63% 5.3 mph NE8.5 kmh NE 12.8 mph20.6 kmh 30.11 in1019.6 mb 0.00 in0.0 mm 0.00 in/hr0.0 mm/hr 0.00 in0.0 mm
03:00 AM 73.6°F23.1°C 60.2°F15.7°C 63% 4.4 mph NE7.1 kmh NE 5.3 mph8.5 kmh 30.11 in1019.6 mb 0.00 in0.0 mm 0.00 in/hr0.0 mm/hr 0.00 in0.0 mm
02:50 AM 73.8°F23.2°C 60.4°F15.8°C 63% 6.7 mph ENE10.8 kmh ENE 9.6 mph15.4 kmh 30.10 in1019.3 mb 0.00 in0.0 mm 0.00 in/hr0.0 mm/hr 0.00 in0.0 mm
02:40 AM 74.0°F23.3°C 60.6°F15.9°C 63% 5.6 mph NE9.0 kmh NE 8.6 mph13.8 kmh 30.10 in1019.3 mb 0.00 in0.0 mm 0.00 in/hr0.0 mm/hr 0.00 in0.0 mm
02:30 AM 74.1°F23.4°C 60.7°F15.9°C 63% 2.6 mph NE4.2 kmh NE 3.2 mph5.1 kmh 30.10 in1019.3 mb 0.00 in0.0 mm 0.00 in/hr0.0 mm/hr 0.00 in0.0 mm
02:20 AM 74.4°F23.6°C 61.0°F16.1°C 63% 4.8 mph NE7.7 kmh NE 6.4 mph10.3 kmh 30.10 in1019.3 mb 0.00 in0.0 mm 0.00 in/hr0.0 mm/hr 0.00 in0.0 mm
02:10 AM 74.4°F23.6°C 61.0°F16.1°C 63% 3.0 mph NE4.8 kmh NE 4.3 mph6.9 kmh 30.10 in1019.3 mb 0.00 in0.0 mm 0.00 in/hr0.0 mm/hr 0.00 in0.0 mm
02:00 AM 74.6°F23.7°C 61.6°F16.4°C 64% 4.7 mph NE7.6 kmh NE 10.7 mph17.2 kmh 30.10 in1019.3 mb 0.00 in0.0 mm 0.00 in/hr0.0 mm/hr 0.00 in0.0 mm
01:50 AM 74.8°F23.8°C 61.8°F16.6°C 64% 5.7 mph ENE9.2 kmh ENE 7.5 mph12.1 kmh 30.10 in1019.3 mb 0.00 in0.0 mm 0.00 in/hr0.0 mm/hr 0.00 in0.0 mm
01:40 AM 74.9°F23.8°C 62.3°F16.8°C 65% 4.0 mph ENE6.4 kmh ENE 9.6 mph15.4 kmh 30.10 in1019.3 mb 0.00 in0.0 mm 0.00 in/hr0.0 mm/hr 0.00 in0.0 mm
01:30 AM 75.1°F23.9°C 63.4°F17.4°C 67% 5.3 mph N8.5 kmh N 7.5 mph12.1 kmh 30.10 in1019.3 mb 0.00 in0.0 mm 0.00 in/hr0.0 mm/hr 0.00 in0.0 mm
01:20 AM 75.2°F24.0°C 64.4°F18.0°C 69% 4.2 mph NE6.8 kmh NE 6.4 mph10.3 kmh 30.09 in1019.0 mb 0.00 in0.0 mm 0.00 in/hr0.0 mm/hr 0.00 in0.0 mm
01:10 AM 75.3°F24.1°C 65.6°F18.7°C 72% 5.8 mph NNE9.3 kmh NNE 12.8 mph20.6 kmh 30.09 in1019.0 mb 0.00 in0.0 mm 0.00 in/hr0.0 mm/hr 0.00 in0.0 mm
01:00 AM 75.5°F24.2°C 67.0°F19.4°C 75% 8.0 mph NE12.9 kmh NE 11.8 mph19.0 kmh 30.09 in1019.0 mb 0.00 in0.0 mm 0.00 in/hr0.0 mm/hr 0.00 in0.0 mm
12:50 AM 75.6°F24.2°C 68.2°F20.1°C 78% 5.5 mph NE8.9 kmh NE 9.6 mph15.4 kmh 30.09 in1019.0 mb 0.00 in0.0 mm 0.00 in/hr0.0 mm/hr 0.00 in0.0 mm
12:40 AM 75.8°F24.3°C 69.2°F20.7°C 80% 6.4 mph NE10.3 kmh NE 10.7 mph17.2 kmh 30.08 in1018.6 mb 0.00 in0.0 mm 0.00 in/hr0.0 mm/hr 0.00 in0.0 mm
12:30 AM 76.0°F24.4°C 69.0°F20.6°C 79% 7.4 mph NE11.9 kmh NE 9.6 mph15.4 kmh 30.08 in1018.6 mb 0.00 in0.0 mm 0.00 in/hr0.0 mm/hr 0.00 in0.0 mm
12:20 AM 76.0°F24.4°C 69.0°F20.6°C 79% 9.1 mph ENE14.6 kmh ENE 11.8 mph19.0 kmh 30.08 in1018.6 mb 0.00 in0.0 mm 0.00 in/hr0.0 mm/hr 0.00 in0.0 mm
12:10 AM 76.0°F24.4°C 69.0°F20.6°C 79% 4.3 mph NE6.9 kmh NE 6.4 mph10.3 kmh 30.08 in1018.6 mb 0.00 in0.0 mm 0.00 in/hr0.0 mm/hr 0.00 in0.0 mm
12:00 AM 76.2°F24.6°C 68.8°F20.4°C 78% 4.4 mph NNE7.1 kmh NNE 5.3 mph8.5 kmh 30.09 in1019.0 mb 0.00 in0.0 mm 0.00 in/hr0.0 mm/hr 0.00 in0.0 mm